BTM - Bert Mooney

Pirep is a free, collaborative database of all public and private airports located within the United States. All pilots are welcome to contribute, edit, and improve any airport they have local knowledge about, no registration required.
Uploaded photos will be licensed under a CC BY-SA 4.0 license. Please only upload photos you have the rights to use.
Tags
Public
METAR / TAF
Webcam
Car Rental
Edit Tags
Food
Camping
Lodging
Bicycles
Swimming
Golfing
Fishing
Hot Springs
Museum
Flying Clubs
Airpark
Upcoming Events
No upcoming events. Is anything happening here soon?
*
*
*

Where exactly on/near the airport is this event taking place?

Is there a webpage with more information for this event?

Who should be contacted for more information?

What is this event all about?

Repeat every
Description
Transient Parking
Fuel Location
Landing & Tie-down Fees
Crew Car Availability
Flying Clubs
WiFi Access
Airport Statistics
Location: Butte, MT
Elevation: 5,550ft
Sectional: Great Falls
Activation date: Apr 1940
Fuel: 100, 100LL, A (prices)
Runway 15/33: 9,000ft
Runway 12/30: 5,100ft
Access: Open to the public
Current Weather — VFR
  • Weather data is strictly informational and not for flight planning purposes.
  • METAR
    2024-05-24 18:53:00 MDT
    Ceiling Wind Temperature Dewpoint Weather Visbility
    Sky clear 310° @ 10kt 55°F 24°F N/A 10SM
    Raw: KBTM 250053Z AUTO 31010KT 10SM CLR 13/M04 A2977 RMK AO2 SLP072 T01331039
  • TAF
    2024-05-24 18:00:00 MDT – 2024-05-24 20:00:00 MDT
    Ceiling Wind Weather Visbility
    10,000ft 290° @ 10kt, gusts 20kt N/A 6SM
    Clouds: Scattered @ 7,000ft, Broken @ 10,000ft
    Raw: KBTM 242320Z 2500/2524 29010G20KT P6SM SCT070 BKN100 FM250200 32006KT P6SM BKN100 FM250500 15005KT P6SM BKN120 FM251400 31005KT P6SM VCSH BKN050 FM252100 31010G20KT P6SM -SHRA OVC050
  • TAF
    2024-05-24 20:00:00 MDT – 2024-05-24 23:00:00 MDT
    Ceiling Wind Weather Visbility
    10,000ft 320° @ 6kt N/A 6SM
    Clouds: Broken @ 10,000ft
    Raw: KBTM 242320Z 2500/2524 29010G20KT P6SM SCT070 BKN100 FM250200 32006KT P6SM BKN100 FM250500 15005KT P6SM BKN120 FM251400 31005KT P6SM VCSH BKN050 FM252100 31010G20KT P6SM -SHRA OVC050
  • TAF
    2024-05-24 23:00:00 MDT – 2024-05-25 08:00:00 MDT
    Ceiling Wind Weather Visbility
    12,000ft 150° @ 5kt N/A 6SM
    Clouds: Broken @ 12,000ft
    Raw: KBTM 242320Z 2500/2524 29010G20KT P6SM SCT070 BKN100 FM250200 32006KT P6SM BKN100 FM250500 15005KT P6SM BKN120 FM251400 31005KT P6SM VCSH BKN050 FM252100 31010G20KT P6SM -SHRA OVC050
  • TAF
    2024-05-25 08:00:00 MDT – 2024-05-25 15:00:00 MDT
    Ceiling Wind Weather Visbility
    5,000ft 310° @ 5kt Showers in vicinity 6SM
    Clouds: Broken @ 5,000ft
    Raw: KBTM 242320Z 2500/2524 29010G20KT P6SM SCT070 BKN100 FM250200 32006KT P6SM BKN100 FM250500 15005KT P6SM BKN120 FM251400 31005KT P6SM VCSH BKN050 FM252100 31010G20KT P6SM -SHRA OVC050
  • TAF
    2024-05-25 15:00:00 MDT – 2024-05-25 18:00:00 MDT
    Ceiling Wind Weather Visbility
    5,000ft 310° @ 10kt, gusts 20kt Light rain showers 6SM
    Clouds: Overcast @ 5,000ft
    Raw: KBTM 242320Z 2500/2524 29010G20KT P6SM SCT070 BKN100 FM250200 32006KT P6SM BKN100 FM250500 15005KT P6SM BKN120 FM251400 31005KT P6SM VCSH BKN050 FM252100 31010G20KT P6SM -SHRA OVC050
Click/tap to add an annotation marker to the map
Direct links to live image URLs will be displayed inline on this page. URLs to separate webpages will be linked to.
URL:
Direct links to live image URLs will be displayed inline on this page. URLs to separate webpages will be linked to.
URL:
Remarks
  • Ppr for unsked acr opns with more than 30 psgr seats call amgr 406-494-3771.
  • Deer in vicinity of airport.
  • Snow removal ops in progres during periods of snow.
  • Cold temperature airport. altitude correction required at or below -25c.
  • For cd if una to ctc on fss freq, ctc salt lake artcc at 801-320-2568.
Comments
Leave a comment What was your experience like at this airport?